sensor_id;sensor_type;location;lat;lon;timestamp;P1;durP1;ratioP1;P2;durP2;ratioP2
67880;SDS011;54680;52.486;-1.890;2022-11-20T00:01:08;7.15;;;3.35;;
67880;SDS011;54680;52.486;-1.890;2022-11-20T00:03:37;9.15;;;3.13;;
67880;SDS011;54680;52.486;-1.890;2022-11-20T00:06:03;7.95;;;3.40;;
67880;SDS011;54680;52.486;-1.890;2022-11-20T00:08:30;7.10;;;3.03;;
67880;SDS011;54680;52.486;-1.890;2022-11-20T00:10:55;15.30;;;3.78;;
67880;SDS011;54680;52.486;-1.890;2022-11-20T00:13:21;7.32;;;2.90;;
67880;SDS011;54680;52.486;-1.890;2022-11-20T00:15:46;5.10;;;3.15;;
67880;SDS011;54680;52.486;-1.890;2022-11-20T00:18:12;7.47;;;3.30;;
67880;SDS011;54680;52.486;-1.890;2022-11-20T00:20:37;9.05;;;3.20;;
67880;SDS011;54680;52.486;-1.890;2022-11-20T00:23:03;6.50;;;2.85;;
67880;SDS011;54680;52.486;-1.890;2022-11-20T00:25:28;7.72;;;2.80;;
67880;SDS011;54680;52.486;-1.890;2022-11-20T00:27:53;7.78;;;3.42;;
67880;SDS011;54680;52.486;-1.890;2022-11-20T00:30:19;6.43;;;3.10;;
67880;SDS011;54680;52.486;-1.890;2022-11-20T00:32:44;6.38;;;2.88;;
67880;SDS011;54680;52.486;-1.890;2022-11-20T00:35:09;7.05;;;3.28;;
67880;SDS011;54680;52.486;-1.890;2022-11-20T00:37:35;7.88;;;3.35;;
67880;SDS011;54680;52.486;-1.890;2022-11-20T00:40:00;5.05;;;3.03;;
67880;SDS011;54680;52.486;-1.890;2022-11-20T00:42:26;7.28;;;3.10;;
67880;SDS011;54680;52.486;-1.890;2022-11-20T00:44:51;7.18;;;2.70;;
67880;SDS011;54680;52.486;-1.890;2022-11-20T00:47:16;9.35;;;2.92;;
67880;SDS011;54680;52.486;-1.890;2022-11-20T00:49:42;7.82;;;2.78;;
67880;SDS011;54680;52.486;-1.890;2022-11-20T00:52:07;7.10;;;2.60;;
67880;SDS011;54680;52.486;-1.890;2022-11-20T00:54:33;9.30;;;3.30;;
67880;SDS011;54680;52.486;-1.890;2022-11-20T00:56:58;6.75;;;2.80;;
67880;SDS011;54680;52.486;-1.890;2022-11-20T00:59:23;5.25;;;2.60;;
67880;SDS011;54680;52.486;-1.890;2022-11-20T01:01:49;5.97;;;3.00;;
67880;SDS011;54680;52.486;-1.890;2022-11-20T01:04:14;7.00;;;2.58;;
67880;SDS011;54680;52.486;-1.890;2022-11-20T01:06:40;6.80;;;2.95;;
67880;SDS011;54680;52.486;-1.890;2022-11-20T01:09:06;5.10;;;2.63;;
67880;SDS011;54680;52.486;-1.890;2022-11-20T01:11:36;8.13;;;2.88;;
67880;SDS011;54680;52.486;-1.890;2022-11-20T01:14:04;5.10;;;2.67;;
67880;SDS011;54680;52.486;-1.890;2022-11-20T01:16:34;8.30;;;2.63;;
67880;SDS011;54680;52.486;-1.890;2022-11-20T01:21:29;4.80;;;2.53;;
67880;SDS011;54680;52.486;-1.890;2022-11-20T01:23:56;6.28;;;2.70;;
67880;SDS011;54680;52.486;-1.890;2022-11-20T01:26:24;6.82;;;2.50;;
67880;SDS011;54680;52.486;-1.890;2022-11-20T01:28:51;7.72;;;2.60;;
67880;SDS011;54680;52.486;-1.890;2022-11-20T01:31:20;4.38;;;2.60;;
67880;SDS011;54680;52.486;-1.890;2022-11-20T01:33:50;7.60;;;2.97;;
67880;SDS011;54680;52.486;-1.890;2022-11-20T01:36:18;6.35;;;2.83;;
67880;SDS011;54680;52.486;-1.890;2022-11-20T01:38:44;7.47;;;2.55;;
67880;SDS011;54680;52.486;-1.890;2022-11-20T01:41:11;4.90;;;2.50;;
67880;SDS011;54680;52.486;-1.890;2022-11-20T01:43:58;5.70;;;2.60;;
67880;SDS011;54680;52.486;-1.890;2022-11-20T01:46:24;7.07;;;2.72;;
67880;SDS011;54680;52.486;-1.890;2022-11-20T01:48:58;3.70;;;2.33;;
67880;SDS011;54680;52.486;-1.890;2022-11-20T01:51:29;5.82;;;2.60;;
67880;SDS011;54680;52.486;-1.890;2022-11-20T01:54:05;4.80;;;2.72;;
67880;SDS011;54680;52.486;-1.890;2022-11-20T01:56:34;6.30;;;2.80;;
67880;SDS011;54680;52.486;-1.890;2022-11-20T01:59:03;4.65;;;2.50;;
67880;SDS011;54680;52.486;-1.890;2022-11-20T02:01:31;4.03;;;2.28;;
67880;SDS011;54680;52.486;-1.890;2022-11-20T02:03:57;7.00;;;2.63;;
67880;SDS011;54680;52.486;-1.890;2022-11-20T02:06:25;5.05;;;2.58;;
67880;SDS011;54680;52.486;-1.890;2022-11-20T02:08:53;5.65;;;2.45;;
67880;SDS011;54680;52.486;-1.890;2022-11-20T02:11:19;6.40;;;2.92;;
67880;SDS011;54680;52.486;-1.890;2022-11-20T02:13:45;5.22;;;2.40;;
67880;SDS011;54680;52.486;-1.890;2022-11-20T02:16:16;4.57;;;2.17;;
67880;SDS011;54680;52.486;-1.890;2022-11-20T02:18:46;8.20;;;3.00;;
67880;SDS011;54680;52.486;-1.890;2022-11-20T02:24:16;3.50;;;2.10;;
67880;SDS011;54680;52.486;-1.890;2022-11-20T02:26:45;5.00;;;2.20;;
67880;SDS011;54680;52.486;-1.890;2022-11-20T02:29:16;4.28;;;2.40;;
67880;SDS011;54680;52.486;-1.890;2022-11-20T02:31:44;4.65;;;2.25;;
67880;SDS011;54680;52.486;-1.890;2022-11-20T02:34:10;6.20;;;2.40;;
67880;SDS011;54680;52.486;-1.890;2022-11-20T02:36:36;6.88;;;2.70;;
67880;SDS011;54680;52.486;-1.890;2022-11-20T02:39:04;3.35;;;2.10;;
67880;SDS011;54680;52.486;-1.890;2022-11-20T02:41:31;5.25;;;2.40;;
67880;SDS011;54680;52.486;-1.890;2022-11-20T02:43:58;4.53;;;2.30;;
67880;SDS011;54680;52.486;-1.890;2022-11-20T02:46:23;5.63;;;2.20;;
67880;SDS011;54680;52.486;-1.890;2022-11-20T02:48:49;5.50;;;2.00;;
67880;SDS011;54680;52.486;-1.890;2022-11-20T02:51:14;6.60;;;2.67;;
67880;SDS011;54680;52.486;-1.890;2022-11-20T02:53:39;3.17;;;2.15;;
67880;SDS011;54680;52.486;-1.890;2022-11-20T02:56:05;5.28;;;2.22;;
67880;SDS011;54680;52.486;-1.890;2022-11-20T02:58:31;5.00;;;2.10;;
67880;SDS011;54680;52.486;-1.890;2022-11-20T03:00:56;4.88;;;2.08;;
67880;SDS011;54680;52.486;-1.890;2022-11-20T03:03:22;4.82;;;1.95;;
67880;SDS011;54680;52.486;-1.890;2022-11-20T03:05:47;3.90;;;2.17;;
67880;SDS011;54680;52.486;-1.890;2022-11-20T03:08:12;4.78;;;2.13;;
67880;SDS011;54680;52.486;-1.890;2022-11-20T03:10:38;3.70;;;2.10;;
67880;SDS011;54680;52.486;-1.890;2022-11-20T03:13:03;3.63;;;2.10;;
67880;SDS011;54680;52.486;-1.890;2022-11-20T03:15:28;7.32;;;2.38;;
67880;SDS011;54680;52.486;-1.890;2022-11-20T03:17:54;4.97;;;1.95;;
67880;SDS011;54680;52.486;-1.890;2022-11-20T03:20:20;5.00;;;2.03;;
67880;SDS011;54680;52.486;-1.890;2022-11-20T03:22:46;3.13;;;1.80;;
67880;SDS011;54680;52.486;-1.890;2022-11-20T03:25:11;4.28;;;2.20;;
67880;SDS011;54680;52.486;-1.890;2022-11-20T03:27:37;3.78;;;2.15;;
67880;SDS011;54680;52.486;-1.890;2022-11-20T03:30:02;4.40;;;1.80;;
67880;SDS011;54680;52.486;-1.890;2022-11-20T03:32:28;2.65;;;1.65;;
67880;SDS011;54680;52.486;-1.890;2022-11-20T03:34:54;1.92;;;1.73;;
67880;SDS011;54680;52.486;-1.890;2022-11-20T03:37:19;3.03;;;1.73;;
67880;SDS011;54680;52.486;-1.890;2022-11-20T03:39:45;2.70;;;1.95;;
67880;SDS011;54680;52.486;-1.890;2022-11-20T03:42:10;3.72;;;1.63;;
67880;SDS011;54680;52.486;-1.890;2022-11-20T03:44:46;4.32;;;2.15;;
67880;SDS011;54680;52.486;-1.890;2022-11-20T03:47:11;3.08;;;1.50;;
67880;SDS011;54680;52.486;-1.890;2022-11-20T03:49:37;6.40;;;2.10;;
67880;SDS011;54680;52.486;-1.890;2022-11-20T03:52:02;3.08;;;1.70;;
67880;SDS011;54680;52.486;-1.890;2022-11-20T03:54:27;2.28;;;1.70;;
67880;SDS011;54680;52.486;-1.890;2022-11-20T03:56:53;3.55;;;1.60;;
67880;SDS011;54680;52.486;-1.890;2022-11-20T03:59:18;2.97;;;1.75;;
67880;SDS011;54680;52.486;-1.890;2022-11-20T04:01:43;3.80;;;1.75;;
67880;SDS011;54680;52.486;-1.890;2022-11-20T04:04:09;2.08;;;1.60;;
67880;SDS011;54680;52.486;-1.890;2022-11-20T04:06:35;1.90;;;1.52;;
67880;SDS011;54680;52.486;-1.890;2022-11-20T04:09:02;2.80;;;1.70;;
67880;SDS011;54680;52.486;-1.890;2022-11-20T04:11:29;2.00;;;1.63;;
67880;SDS011;54680;52.486;-1.890;2022-11-20T04:13:58;2.50;;;1.67;;
67880;SDS011;54680;52.486;-1.890;2022-11-20T04:16:26;3.83;;;1.88;;
67880;SDS011;54680;52.486;-1.890;2022-11-20T04:18:55;3.05;;;1.70;;
67880;SDS011;54680;52.486;-1.890;2022-11-20T04:21:22;1.83;;;1.40;;
67880;SDS011;54680;52.486;-1.890;2022-11-20T04:23:48;3.42;;;1.58;;
67880;SDS011;54680;52.486;-1.890;2022-11-20T04:26:15;3.03;;;1.50;;
67880;SDS011;54680;52.486;-1.890;2022-11-20T04:28:40;1.63;;;1.40;;
67880;SDS011;54680;52.486;-1.890;2022-11-20T04:31:10;3.33;;;1.35;;
67880;SDS011;54680;52.486;-1.890;2022-11-20T04:33:38;1.95;;;1.40;;
67880;SDS011;54680;52.486;-1.890;2022-11-20T04:36:06;1.25;;;1.15;;
67880;SDS011;54680;52.486;-1.890;2022-11-20T04:38:41;1.90;;;1.30;;
67880;SDS011;54680;52.486;-1.890;2022-11-20T04:41:07;2.80;;;1.50;;
67880;SDS011;54680;52.486;-1.890;2022-11-20T04:43:36;1.23;;;1.10;;
67880;SDS011;54680;52.486;-1.890;2022-11-20T04:46:01;2.63;;;1.70;;
67880;SDS011;54680;52.486;-1.890;2022-11-20T04:48:27;1.95;;;1.40;;
67880;SDS011;54680;52.486;-1.890;2022-11-20T04:50:53;2.97;;;1.50;;
67880;SDS011;54680;52.486;-1.890;2022-11-20T04:53:19;2.05;;;1.35;;
67880;SDS011;54680;52.486;-1.890;2022-11-20T04:55:45;4.32;;;1.50;;
67880;SDS011;54680;52.486;-1.890;2022-11-20T04:58:11;1.65;;;1.25;;
67880;SDS011;54680;52.486;-1.890;2022-11-20T05:00:37;2.28;;;1.50;;
67880;SDS011;54680;52.486;-1.890;2022-11-20T05:03:02;3.05;;;1.20;;
67880;SDS011;54680;52.486;-1.890;2022-11-20T05:05:28;1.48;;;1.13;;
67880;SDS011;54680;52.486;-1.890;2022-11-20T05:07:55;2.65;;;1.65;;
67880;SDS011;54680;52.486;-1.890;2022-11-20T05:10:22;1.92;;;1.40;;
67880;SDS011;54680;52.486;-1.890;2022-11-20T05:12:48;1.40;;;1.30;;
67880;SDS011;54680;52.486;-1.890;2022-11-20T05:15:13;1.38;;;1.27;;
67880;SDS011;54680;52.486;-1.890;2022-11-20T05:17:39;2.40;;;1.23;;
67880;SDS011;54680;52.486;-1.890;2022-11-20T05:20:04;2.42;;;1.25;;
67880;SDS011;54680;52.486;-1.890;2022-11-20T05:22:30;1.77;;;1.20;;
67880;SDS011;54680;52.486;-1.890;2022-11-20T05:24:55;1.88;;;1.17;;
67880;SDS011;54680;52.486;-1.890;2022-11-20T05:27:21;1.40;;;1.30;;
67880;SDS011;54680;52.486;-1.890;2022-11-20T05:29:46;2.30;;;1.27;;
67880;SDS011;54680;52.486;-1.890;2022-11-20T05:32:12;1.20;;;1.10;;
67880;SDS011;54680;52.486;-1.890;2022-11-20T05:34:37;1.98;;;1.23;;
67880;SDS011;54680;52.486;-1.890;2022-11-20T05:37:02;1.95;;;1.27;;
67880;SDS011;54680;52.486;-1.890;2022-11-20T05:39:28;2.63;;;1.50;;
67880;SDS011;54680;52.486;-1.890;2022-11-20T05:41:53;1.48;;;1.10;;
67880;SDS011;54680;52.486;-1.890;2022-11-20T05:44:37;1.90;;;1.10;;
67880;SDS011;54680;52.486;-1.890;2022-11-20T05:47:02;1.23;;;1.13;;
67880;SDS011;54680;52.486;-1.890;2022-11-20T05:49:28;1.63;;;1.20;;
67880;SDS011;54680;52.486;-1.890;2022-11-20T05:51:53;1.08;;;0.98;;
67880;SDS011;54680;52.486;-1.890;2022-11-20T05:54:18;1.30;;;1.05;;
67880;SDS011;54680;52.486;-1.890;2022-11-20T05:56:44;1.00;;;1.00;;
67880;SDS011;54680;52.486;-1.890;2022-11-20T05:59:09;2.40;;;1.10;;
67880;SDS011;54680;52.486;-1.890;2022-11-20T06:01:35;1.05;;;0.95;;
67880;SDS011;54680;52.486;-1.890;2022-11-20T06:04:01;3.92;;;1.27;;
67880;SDS011;54680;52.486;-1.890;2022-11-20T06:06:27;4.03;;;1.10;;
67880;SDS011;54680;52.486;-1.890;2022-11-20T06:08:52;1.38;;;0.95;;
67880;SDS011;54680;52.486;-1.890;2022-11-20T06:11:18;1.83;;;1.30;;
67880;SDS011;54680;52.486;-1.890;2022-11-20T06:13:44;1.75;;;1.08;;
67880;SDS011;54680;52.486;-1.890;2022-11-20T06:16:11;1.65;;;1.00;;
67880;SDS011;54680;52.486;-1.890;2022-11-20T06:18:38;1.52;;;1.00;;
67880;SDS011;54680;52.486;-1.890;2022-11-20T06:21:07;2.05;;;1.35;;
67880;SDS011;54680;52.486;-1.890;2022-11-20T06:23:34;2.20;;;1.30;;
67880;SDS011;54680;52.486;-1.890;2022-11-20T06:26:01;3.55;;;1.30;;
67880;SDS011;54680;52.486;-1.890;2022-11-20T06:28:29;1.13;;;1.02;;
67880;SDS011;54680;52.486;-1.890;2022-11-20T06:30:54;1.23;;;0.90;;
67880;SDS011;54680;52.486;-1.890;2022-11-20T06:33:20;1.65;;;1.20;;
67880;SDS011;54680;52.486;-1.890;2022-11-20T06:35:45;1.85;;;1.00;;
67880;SDS011;54680;52.486;-1.890;2022-11-20T06:38:11;0.93;;;0.85;;
67880;SDS011;54680;52.486;-1.890;2022-11-20T06:40:39;1.77;;;0.98;;
67880;SDS011;54680;52.486;-1.890;2022-11-20T06:43:05;1.95;;;1.10;;
67880;SDS011;54680;52.486;-1.890;2022-11-20T06:45:30;1.48;;;1.00;;
67880;SDS011;54680;52.486;-1.890;2022-11-20T06:47:57;1.20;;;0.95;;
67880;SDS011;54680;52.486;-1.890;2022-11-20T06:50:23;3.50;;;1.23;;
67880;SDS011;54680;52.486;-1.890;2022-11-20T06:52:48;4.20;;;1.10;;
67880;SDS011;54680;52.486;-1.890;2022-11-20T06:55:13;1.90;;;0.95;;
67880;SDS011;54680;52.486;-1.890;2022-11-20T06:57:39;1.25;;;1.00;;
67880;SDS011;54680;52.486;-1.890;2022-11-20T07:00:05;2.33;;;1.05;;
67880;SDS011;54680;52.486;-1.890;2022-11-20T07:02:31;2.70;;;1.20;;
67880;SDS011;54680;52.486;-1.890;2022-11-20T07:04:56;2.42;;;1.10;;
67880;SDS011;54680;52.486;-1.890;2022-11-20T07:07:22;2.55;;;1.20;;
67880;SDS011;54680;52.486;-1.890;2022-11-20T07:09:47;5.38;;;1.17;;
67880;SDS011;54680;52.486;-1.890;2022-11-20T07:12:12;2.45;;;1.02;;
67880;SDS011;54680;52.486;-1.890;2022-11-20T07:14:38;3.10;;;1.45;;
67880;SDS011;54680;52.486;-1.890;2022-11-20T07:17:03;1.70;;;1.20;;
67880;SDS011;54680;52.486;-1.890;2022-11-20T07:19:28;4.80;;;1.35;;
67880;SDS011;54680;52.486;-1.890;2022-11-20T07:21:54;4.13;;;1.15;;
67880;SDS011;54680;52.486;-1.890;2022-11-20T07:24:19;3.72;;;1.20;;
67880;SDS011;54680;52.486;-1.890;2022-11-20T07:26:46;4.60;;;1.60;;
67880;SDS011;54680;52.486;-1.890;2022-11-20T07:29:14;2.95;;;1.20;;
67880;SDS011;54680;52.486;-1.890;2022-11-20T07:31:40;3.47;;;1.42;;
67880;SDS011;54680;52.486;-1.890;2022-11-20T07:34:05;4.32;;;1.38;;
67880;SDS011;54680;52.486;-1.890;2022-11-20T07:36:30;4.20;;;1.50;;
67880;SDS011;54680;52.486;-1.890;2022-11-20T07:38:56;3.45;;;1.30;;
67880;SDS011;54680;52.486;-1.890;2022-11-20T07:41:21;2.13;;;0.95;;
67880;SDS011;54680;52.486;-1.890;2022-11-20T07:43:47;2.70;;;1.52;;
67880;SDS011;54680;52.486;-1.890;2022-11-20T07:46:12;3.88;;;1.58;;
67880;SDS011;54680;52.486;-1.890;2022-11-20T07:48:37;3.65;;;1.40;;
67880;SDS011;54680;52.486;-1.890;2022-11-20T07:51:03;2.78;;;1.40;;
67880;SDS011;54680;52.486;-1.890;2022-11-20T07:53:28;2.17;;;1.20;;
67880;SDS011;54680;52.486;-1.890;2022-11-20T07:55:54;3.35;;;1.38;;
67880;SDS011;54680;52.486;-1.890;2022-11-20T07:58:20;4.07;;;1.27;;
67880;SDS011;54680;52.486;-1.890;2022-11-20T08:00:46;2.42;;;1.33;;
67880;SDS011;54680;52.486;-1.890;2022-11-20T08:03:11;2.83;;;1.58;;
67880;SDS011;54680;52.486;-1.890;2022-11-20T08:05:37;2.67;;;1.23;;
67880;SDS011;54680;52.486;-1.890;2022-11-20T08:08:03;4.70;;;1.42;;
67880;SDS011;54680;52.486;-1.890;2022-11-20T08:10:28;4.30;;;1.52;;
67880;SDS011;54680;52.486;-1.890;2022-11-20T08:12:54;3.33;;;1.48;;
67880;SDS011;54680;52.486;-1.890;2022-11-20T08:15:39;5.32;;;1.60;;
67880;SDS011;54680;52.486;-1.890;2022-11-20T08:18:06;5.85;;;1.73;;
67880;SDS011;54680;52.486;-1.890;2022-11-20T08:20:33;4.20;;;1.40;;
67880;SDS011;54680;52.486;-1.890;2022-11-20T08:23:00;3.75;;;1.52;;
67880;SDS011;54680;52.486;-1.890;2022-11-20T08:25:28;5.03;;;1.63;;
67880;SDS011;54680;52.486;-1.890;2022-11-20T08:27:56;7.43;;;1.90;;
67880;SDS011;54680;52.486;-1.890;2022-11-20T08:30:23;4.63;;;1.52;;
67880;SDS011;54680;52.486;-1.890;2022-11-20T08:32:49;2.80;;;1.40;;
67880;SDS011;54680;52.486;-1.890;2022-11-20T08:35:14;8.63;;;2.00;;
67880;SDS011;54680;52.486;-1.890;2022-11-20T08:37:40;6.85;;;1.88;;
67880;SDS011;54680;52.486;-1.890;2022-11-20T08:40:07;7.45;;;1.90;;
67880;SDS011;54680;52.486;-1.890;2022-11-20T08:42:35;5.30;;;1.58;;
67880;SDS011;54680;52.486;-1.890;2022-11-20T08:45:00;6.20;;;1.52;;
67880;SDS011;54680;52.486;-1.890;2022-11-20T08:47:25;9.98;;;1.92;;
67880;SDS011;54680;52.486;-1.890;2022-11-20T08:49:51;3.28;;;1.70;;
67880;SDS011;54680;52.486;-1.890;2022-11-20T08:52:16;4.82;;;1.40;;
67880;SDS011;54680;52.486;-1.890;2022-11-20T08:54:42;9.45;;;1.80;;
67880;SDS011;54680;52.486;-1.890;2022-11-20T08:57:07;6.93;;;1.80;;
67880;SDS011;54680;52.486;-1.890;2022-11-20T08:59:33;5.35;;;1.67;;
67880;SDS011;54680;52.486;-1.890;2022-11-20T09:01:58;6.97;;;1.70;;
67880;SDS011;54680;52.486;-1.890;2022-11-20T09:04:23;5.07;;;1.95;;
67880;SDS011;54680;52.486;-1.890;2022-11-20T09:06:49;6.60;;;1.92;;
67880;SDS011;54680;52.486;-1.890;2022-11-20T09:09:16;4.93;;;2.10;;
67880;SDS011;54680;52.486;-1.890;2022-11-20T09:11:43;5.95;;;1.83;;
67880;SDS011;54680;52.486;-1.890;2022-11-20T09:14:09;7.03;;;1.75;;
67880;SDS011;54680;52.486;-1.890;2022-11-20T09:16:34;5.93;;;1.90;;
67880;SDS011;54680;52.486;-1.890;2022-11-20T09:19:00;7.82;;;1.85;;
67880;SDS011;54680;52.486;-1.890;2022-11-20T09:21:25;10.93;;;2.30;;
67880;SDS011;54680;52.486;-1.890;2022-11-20T09:23:50;7.63;;;1.83;;
67880;SDS011;54680;52.486;-1.890;2022-11-20T09:26:16;6.63;;;1.67;;
67880;SDS011;54680;52.486;-1.890;2022-11-20T09:28:41;7.75;;;2.05;;
67880;SDS011;54680;52.486;-1.890;2022-11-20T09:31:07;7.35;;;1.90;;
67880;SDS011;54680;52.486;-1.890;2022-11-20T09:33:34;4.32;;;1.70;;
67880;SDS011;54680;52.486;-1.890;2022-11-20T09:36:00;6.45;;;2.10;;
67880;SDS011;54680;52.486;-1.890;2022-11-20T09:38:25;7.40;;;1.70;;
67880;SDS011;54680;52.486;-1.890;2022-11-20T09:40:56;7.93;;;1.90;;
67880;SDS011;54680;52.486;-1.890;2022-11-20T09:52:09;5.45;;;1.65;;
67880;SDS011;54680;52.486;-1.890;2022-11-20T09:55:00;6.80;;;2.10;;
67880;SDS011;54680;52.486;-1.890;2022-11-20T09:57:31;6.55;;;1.70;;
67880;SDS011;54680;52.486;-1.890;2022-11-20T10:00:02;7.95;;;2.03;;
67880;SDS011;54680;52.486;-1.890;2022-11-20T10:02:35;6.93;;;1.95;;
67880;SDS011;54680;52.486;-1.890;2022-11-20T10:08:13;8.02;;;2.58;;
67880;SDS011;54680;52.486;-1.890;2022-11-20T10:10:45;5.35;;;1.90;;
67880;SDS011;54680;52.486;-1.890;2022-11-20T10:14:11;7.82;;;2.20;;
67880;SDS011;54680;52.486;-1.890;2022-11-20T10:25:16;5.50;;;1.92;;
67880;SDS011;54680;52.486;-1.890;2022-11-20T10:27:49;6.57;;;1.90;;
67880;SDS011;54680;52.486;-1.890;2022-11-20T10:30:38;5.70;;;1.92;;
67880;SDS011;54680;52.486;-1.890;2022-11-20T10:33:13;6.68;;;2.25;;
67880;SDS011;54680;52.486;-1.890;2022-11-20T10:38:46;7.05;;;1.85;;
67880;SDS011;54680;52.486;-1.890;2022-11-20T10:41:17;7.20;;;2.80;;
67880;SDS011;54680;52.486;-1.890;2022-11-20T10:43:52;7.35;;;1.95;;
67880;SDS011;54680;52.486;-1.890;2022-11-20T10:46:25;7.68;;;2.38;;
67880;SDS011;54680;52.486;-1.890;2022-11-20T10:48:57;7.15;;;2.08;;
67880;SDS011;54680;52.486;-1.890;2022-11-20T10:57:24;6.45;;;2.17;;
67880;SDS011;54680;52.486;-1.890;2022-11-20T11:00:10;6.20;;;1.95;;
67880;SDS011;54680;52.486;-1.890;2022-11-20T11:02:41;5.68;;;2.33;;
67880;SDS011;54680;52.486;-1.890;2022-11-20T11:07:58;4.40;;;1.83;;
67880;SDS011;54680;52.486;-1.890;2022-11-20T11:10:26;5.45;;;1.63;;
67880;SDS011;54680;52.486;-1.890;2022-11-20T11:13:00;7.93;;;2.50;;
67880;SDS011;54680;52.486;-1.890;2022-11-20T11:15:27;6.65;;;2.00;;
67880;SDS011;54680;52.486;-1.890;2022-11-20T11:17:55;8.85;;;1.95;;
67880;SDS011;54680;52.486;-1.890;2022-11-20T11:20:21;5.47;;;2.05;;
67880;SDS011;54680;52.486;-1.890;2022-11-20T11:22:49;5.75;;;2.05;;
67880;SDS011;54680;52.486;-1.890;2022-11-20T11:25:20;4.97;;;1.80;;
67880;SDS011;54680;52.486;-1.890;2022-11-20T11:28:02;6.18;;;2.20;;
67880;SDS011;54680;52.486;-1.890;2022-11-20T11:30:30;12.02;;;2.13;;
67880;SDS011;54680;52.486;-1.890;2022-11-20T11:33:08;5.78;;;1.80;;
67880;SDS011;54680;52.486;-1.890;2022-11-20T11:35:38;8.60;;;2.20;;
67880;SDS011;54680;52.486;-1.890;2022-11-20T11:38:12;11.05;;;2.25;;
67880;SDS011;54680;52.486;-1.890;2022-11-20T11:40:40;6.22;;;1.95;;
67880;SDS011;54680;52.486;-1.890;2022-11-20T11:43:06;6.03;;;1.92;;
67880;SDS011;54680;52.486;-1.890;2022-11-20T11:46:01;6.80;;;1.92;;
67880;SDS011;54680;52.486;-1.890;2022-11-20T11:48:26;7.03;;;1.92;;
67880;SDS011;54680;52.486;-1.890;2022-11-20T11:50:52;4.80;;;1.88;;
67880;SDS011;54680;52.486;-1.890;2022-11-20T11:53:18;6.65;;;2.10;;
67880;SDS011;54680;52.486;-1.890;2022-11-20T11:55:49;8.38;;;2.10;;
67880;SDS011;54680;52.486;-1.890;2022-11-20T11:58:34;6.35;;;2.15;;
67880;SDS011;54680;52.486;-1.890;2022-11-20T12:03:58;5.27;;;1.90;;
67880;SDS011;54680;52.486;-1.890;2022-11-20T12:06:29;7.57;;;2.00;;
67880;SDS011;54680;52.486;-1.890;2022-11-20T12:08:59;7.65;;;1.98;;
67880;SDS011;54680;52.486;-1.890;2022-11-20T12:11:30;5.32;;;2.05;;
67880;SDS011;54680;52.486;-1.890;2022-11-20T12:14:09;8.30;;;1.88;;
67880;SDS011;54680;52.486;-1.890;2022-11-20T12:16:44;7.20;;;1.90;;
67880;SDS011;54680;52.486;-1.890;2022-11-20T12:19:11;8.45;;;1.90;;
67880;SDS011;54680;52.486;-1.890;2022-11-20T12:21:48;7.47;;;2.15;;
67880;SDS011;54680;52.486;-1.890;2022-11-20T12:30:11;7.90;;;2.20;;
67880;SDS011;54680;52.486;-1.890;2022-11-20T12:35:37;10.23;;;2.25;;
67880;SDS011;54680;52.486;-1.890;2022-11-20T12:38:29;5.78;;;2.03;;
67880;SDS011;54680;52.486;-1.890;2022-11-20T12:41:12;12.75;;;2.47;;
67880;SDS011;54680;52.486;-1.890;2022-11-20T12:44:06;4.95;;;1.95;;
67880;SDS011;54680;52.486;-1.890;2022-11-20T12:47:08;8.55;;;2.15;;
67880;SDS011;54680;52.486;-1.890;2022-11-20T12:49:48;9.13;;;2.15;;
67880;SDS011;54680;52.486;-1.890;2022-11-20T12:52:40;7.10;;;2.20;;
67880;SDS011;54680;52.486;-1.890;2022-11-20T12:55:16;9.70;;;2.30;;
67880;SDS011;54680;52.486;-1.890;2022-11-20T12:57:50;5.38;;;1.90;;
67880;SDS011;54680;52.486;-1.890;2022-11-20T13:00:22;6.50;;;1.90;;
67880;SDS011;54680;52.486;-1.890;2022-11-20T13:08:49;5.63;;;1.90;;
67880;SDS011;54680;52.486;-1.890;2022-11-20T13:11:21;7.95;;;2.17;;
67880;SDS011;54680;52.486;-1.890;2022-11-20T13:14:04;10.13;;;2.10;;
67880;SDS011;54680;52.486;-1.890;2022-11-20T13:16:53;5.13;;;1.95;;
67880;SDS011;54680;52.486;-1.890;2022-11-20T13:19:25;7.75;;;2.08;;
67880;SDS011;54680;52.486;-1.890;2022-11-20T13:21:52;5.55;;;2.22;;
67880;SDS011;54680;52.486;-1.890;2022-11-20T13:24:24;4.65;;;1.83;;
67880;SDS011;54680;52.486;-1.890;2022-11-20T13:29:44;7.93;;;2.00;;
67880;SDS011;54680;52.486;-1.890;2022-11-20T13:32:14;8.57;;;2.28;;
67880;SDS011;54680;52.486;-1.890;2022-11-20T13:37:24;5.65;;;1.98;;
67880;SDS011;54680;52.486;-1.890;2022-11-20T13:39:52;8.20;;;2.65;;
67880;SDS011;54680;52.486;-1.890;2022-11-20T13:42:20;6.22;;;2.15;;
67880;SDS011;54680;52.486;-1.890;2022-11-20T13:44:54;6.43;;;2.17;;
67880;SDS011;54680;52.486;-1.890;2022-11-20T13:47:26;8.60;;;2.10;;
67880;SDS011;54680;52.486;-1.890;2022-11-20T13:49:52;10.52;;;2.30;;
67880;SDS011;54680;52.486;-1.890;2022-11-20T14:01:09;5.45;;;1.90;;
67880;SDS011;54680;52.486;-1.890;2022-11-20T14:03:40;5.85;;;2.10;;
67880;SDS011;54680;52.486;-1.890;2022-11-20T14:06:11;7.70;;;2.47;;
67880;SDS011;54680;52.486;-1.890;2022-11-20T14:08:43;8.40;;;2.10;;
67880;SDS011;54680;52.486;-1.890;2022-11-20T14:11:13;4.85;;;2.38;;
67880;SDS011;54680;52.486;-1.890;2022-11-20T14:16:25;6.88;;;2.30;;
67880;SDS011;54680;52.486;-1.890;2022-11-20T14:18:53;7.25;;;2.00;;
67880;SDS011;54680;52.486;-1.890;2022-11-20T14:21:29;4.78;;;1.80;;
67880;SDS011;54680;52.486;-1.890;2022-11-20T14:26:35;5.50;;;2.15;;
67880;SDS011;54680;52.486;-1.890;2022-11-20T14:29:02;9.38;;;2.35;;
67880;SDS011;54680;52.486;-1.890;2022-11-20T14:31:28;6.80;;;1.83;;
67880;SDS011;54680;52.486;-1.890;2022-11-20T14:33:53;4.93;;;1.75;;
67880;SDS011;54680;52.486;-1.890;2022-11-20T14:36:21;5.13;;;1.73;;
67880;SDS011;54680;52.486;-1.890;2022-11-20T14:38:48;6.07;;;1.90;;
67880;SDS011;54680;52.486;-1.890;2022-11-20T14:41:16;6.60;;;2.20;;
67880;SDS011;54680;52.486;-1.890;2022-11-20T14:43:45;6.55;;;1.90;;
67880;SDS011;54680;52.486;-1.890;2022-11-20T14:46:12;7.53;;;1.95;;
67880;SDS011;54680;52.486;-1.890;2022-11-20T14:48:45;5.40;;;1.80;;
67880;SDS011;54680;52.486;-1.890;2022-11-20T14:51:43;6.25;;;1.98;;
67880;SDS011;54680;52.486;-1.890;2022-11-20T14:54:17;3.95;;;1.75;;
67880;SDS011;54680;52.486;-1.890;2022-11-20T14:59:25;8.00;;;2.00;;
67880;SDS011;54680;52.486;-1.890;2022-11-20T15:02:04;4.82;;;1.67;;
67880;SDS011;54680;52.486;-1.890;2022-11-20T15:04:43;6.15;;;1.65;;
67880;SDS011;54680;52.486;-1.890;2022-11-20T15:07:10;4.20;;;1.40;;
67880;SDS011;54680;52.486;-1.890;2022-11-20T15:09:35;3.45;;;1.60;;
67880;SDS011;54680;52.486;-1.890;2022-11-20T15:12:01;3.45;;;1.40;;
67880;SDS011;54680;52.486;-1.890;2022-11-20T15:14:28;2.95;;;1.40;;
67880;SDS011;54680;52.486;-1.890;2022-11-20T15:16:57;4.90;;;1.67;;
67880;SDS011;54680;52.486;-1.890;2022-11-20T15:19:24;3.22;;;1.55;;
67880;SDS011;54680;52.486;-1.890;2022-11-20T15:21:51;3.22;;;1.45;;
67880;SDS011;54680;52.486;-1.890;2022-11-20T15:24:17;5.53;;;1.45;;
67880;SDS011;54680;52.486;-1.890;2022-11-20T15:26:43;4.05;;;1.45;;
67880;SDS011;54680;52.486;-1.890;2022-11-20T15:29:09;5.43;;;1.65;;
67880;SDS011;54680;52.486;-1.890;2022-11-20T15:31:37;3.80;;;1.20;;
67880;SDS011;54680;52.486;-1.890;2022-11-20T15:34:08;4.45;;;1.48;;
67880;SDS011;54680;52.486;-1.890;2022-11-20T15:36:38;1.20;;;1.10;;
67880;SDS011;54680;52.486;-1.890;2022-11-20T15:39:05;2.25;;;1.33;;
67880;SDS011;54680;52.486;-1.890;2022-11-20T15:41:32;2.75;;;1.42;;
67880;SDS011;54680;52.486;-1.890;2022-11-20T15:43:59;3.17;;;1.20;;
67880;SDS011;54680;52.486;-1.890;2022-11-20T15:46:26;3.95;;;1.27;;
67880;SDS011;54680;52.486;-1.890;2022-11-20T15:48:54;4.10;;;1.20;;
67880;SDS011;54680;52.486;-1.890;2022-11-20T15:51:27;1.95;;;1.15;;
67880;SDS011;54680;52.486;-1.890;2022-11-20T15:53:54;2.00;;;0.93;;
67880;SDS011;54680;52.486;-1.890;2022-11-20T15:56:20;3.42;;;1.20;;
67880;SDS011;54680;52.486;-1.890;2022-11-20T15:58:46;3.22;;;1.33;;